sensor_id;sensor_type;location;lat;lon;timestamp;temperature;humidity
39665;DHT22;26679;50.872;4.332;2023-01-04T00:01:41;9.30;99.90
39665;DHT22;26679;50.872;4.332;2023-01-04T00:04:06;9.30;99.90
39665;DHT22;26679;50.872;4.332;2023-01-04T00:06:32;9.30;99.90
39665;DHT22;26679;50.872;4.332;2023-01-04T00:08:57;9.40;99.90
39665;DHT22;26679;50.872;4.332;2023-01-04T00:11:23;9.40;99.90
39665;DHT22;26679;50.872;4.332;2023-01-04T00:13:49;9.40;99.90
39665;DHT22;26679;50.872;4.332;2023-01-04T00:16:22;9.40;99.90
39665;DHT22;26679;50.872;4.332;2023-01-04T00:18:48;9.40;99.90
39665;DHT22;26679;50.872;4.332;2023-01-04T00:21:14;9.50;99.90
39665;DHT22;26679;50.872;4.332;2023-01-04T00:23:41;9.50;99.90
39665;DHT22;26679;50.872;4.332;2023-01-04T00:26:13;9.50;99.90
39665;DHT22;26679;50.872;4.332;2023-01-04T00:28:40;9.50;99.90
39665;DHT22;26679;50.872;4.332;2023-01-04T00:31:06;9.60;99.90
39665;DHT22;26679;50.872;4.332;2023-01-04T00:33:32;9.60;99.90
39665;DHT22;26679;50.872;4.332;2023-01-04T00:36:02;9.60;99.90
39665;DHT22;26679;50.872;4.332;2023-01-04T00:38:28;9.60;99.90
39665;DHT22;26679;50.872;4.332;2023-01-04T00:40:53;9.60;99.90
39665;DHT22;26679;50.872;4.332;2023-01-04T00:43:19;10.60;99.90
39665;DHT22;26679;50.872;4.332;2023-01-04T00:45:44;9.70;99.90
39665;DHT22;26679;50.872;4.332;2023-01-04T00:48:10;9.70;99.90
39665;DHT22;26679;50.872;4.332;2023-01-04T00:50:35;9.70;99.90
39665;DHT22;26679;50.872;4.332;2023-01-04T00:53:01;9.70;99.90
39665;DHT22;26679;50.872;4.332;2023-01-04T00:55:26;9.70;99.90
39665;DHT22;26679;50.872;4.332;2023-01-04T00:57:54;9.70;99.90
39665;DHT22;26679;50.872;4.332;2023-01-04T01:00:19;9.80;99.90
39665;DHT22;26679;50.872;4.332;2023-01-04T01:02:45;9.80;99.90
39665;DHT22;26679;50.872;4.332;2023-01-04T01:05:10;9.80;99.90
39665;DHT22;26679;50.872;4.332;2023-01-04T01:07:36;9.90;99.90
39665;DHT22;26679;50.872;4.332;2023-01-04T01:10:01;9.90;99.90
39665;DHT22;26679;50.872;4.332;2023-01-04T01:12:27;9.80;99.90
39665;DHT22;26679;50.872;4.332;2023-01-04T01:14:52;9.70;99.90
39665;DHT22;26679;50.872;4.332;2023-01-04T01:17:18;9.80;99.90
39665;DHT22;26679;50.872;4.332;2023-01-04T01:19:43;9.80;99.90
39665;DHT22;26679;50.872;4.332;2023-01-04T01:22:08;9.90;99.90
39665;DHT22;26679;50.872;4.332;2023-01-04T01:24:34;10.10;99.90
39665;DHT22;26679;50.872;4.332;2023-01-04T01:27:00;9.90;99.90
39665;DHT22;26679;50.872;4.332;2023-01-04T01:29:25;9.90;99.90
39665;DHT22;26679;50.872;4.332;2023-01-04T01:31:51;9.90;99.90
39665;DHT22;26679;50.872;4.332;2023-01-04T01:34:17;9.90;99.90
39665;DHT22;26679;50.872;4.332;2023-01-04T01:36:42;9.90;99.90
39665;DHT22;26679;50.872;4.332;2023-01-04T01:39:08;9.90;99.90
39665;DHT22;26679;50.872;4.332;2023-01-04T01:41:34;10.00;99.90
39665;DHT22;26679;50.872;4.332;2023-01-04T01:44:01;10.00;99.90
39665;DHT22;26679;50.872;4.332;2023-01-04T01:46:28;10.00;99.90
39665;DHT22;26679;50.872;4.332;2023-01-04T01:48:57;10.00;99.90
39665;DHT22;26679;50.872;4.332;2023-01-04T01:51:23;10.10;99.90
39665;DHT22;26679;50.872;4.332;2023-01-04T01:53:50;10.10;99.90
39665;DHT22;26679;50.872;4.332;2023-01-04T01:56:17;10.10;99.90
39665;DHT22;26679;50.872;4.332;2023-01-04T01:58:44;10.20;99.90
39665;DHT22;26679;50.872;4.332;2023-01-04T02:01:11;10.20;99.90
39665;DHT22;26679;50.872;4.332;2023-01-04T02:03:41;10.20;99.90
39665;DHT22;26679;50.872;4.332;2023-01-04T02:06:11;10.20;99.90
39665;DHT22;26679;50.872;4.332;2023-01-04T02:08:38;10.20;99.90
39665;DHT22;26679;50.872;4.332;2023-01-04T02:11:04;10.30;99.90
39665;DHT22;26679;50.872;4.332;2023-01-04T02:13:30;10.30;99.90
39665;DHT22;26679;50.872;4.332;2023-01-04T02:16:51;10.40;99.90
39665;DHT22;26679;50.872;4.332;2023-01-04T02:27:02;10.30;99.90
39665;DHT22;26679;50.872;4.332;2023-01-04T02:32:11;10.40;99.90
39665;DHT22;26679;50.872;4.332;2023-01-04T02:34:51;10.40;99.90
39665;DHT22;26679;50.872;4.332;2023-01-04T02:45:16;10.60;99.90
39665;DHT22;26679;50.872;4.332;2023-01-04T02:47:42;10.60;99.90
39665;DHT22;26679;50.872;4.332;2023-01-04T02:52:56;10.70;99.90
39665;DHT22;26679;50.872;4.332;2023-01-04T02:55:22;10.70;99.90
39665;DHT22;26679;50.872;4.332;2023-01-04T02:57:52;10.60;99.90
39665;DHT22;26679;50.872;4.332;2023-01-04T03:00:24;10.60;99.90
39665;DHT22;26679;50.872;4.332;2023-01-04T03:02:57;10.60;99.90
39665;DHT22;26679;50.872;4.332;2023-01-04T03:10:52;10.90;99.90
39665;DHT22;26679;50.872;4.332;2023-01-04T03:16:00;11.00;99.90
39665;DHT22;26679;50.872;4.332;2023-01-04T03:18:27;11.00;99.90
39665;DHT22;26679;50.872;4.332;2023-01-04T03:20:55;11.10;99.90
39665;DHT22;26679;50.872;4.332;2023-01-04T03:23:21;10.90;99.90
39665;DHT22;26679;50.872;4.332;2023-01-04T03:26:04;10.90;99.90
39665;DHT22;26679;50.872;4.332;2023-01-04T03:28:41;10.90;99.90
39665;DHT22;26679;50.872;4.332;2023-01-04T03:31:21;10.90;99.90
39665;DHT22;26679;50.872;4.332;2023-01-04T03:33:58;10.90;99.90
39665;DHT22;26679;50.872;4.332;2023-01-04T03:36:38;10.90;99.90
39665;DHT22;26679;50.872;4.332;2023-01-04T03:39:14;10.90;99.90
39665;DHT22;26679;50.872;4.332;2023-01-04T03:44:43;11.00;99.90
39665;DHT22;26679;50.872;4.332;2023-01-04T03:47:24;10.90;99.90
39665;DHT22;26679;50.872;4.332;2023-01-04T03:50:05;11.10;99.90
39665;DHT22;26679;50.872;4.332;2023-01-04T03:52:33;11.00;99.90
39665;DHT22;26679;50.872;4.332;2023-01-04T03:55:00;11.10;99.90
39665;DHT22;26679;50.872;4.332;2023-01-04T03:57:26;11.30;99.90
39665;DHT22;26679;50.872;4.332;2023-01-04T03:59:52;11.20;99.90
39665;DHT22;26679;50.872;4.332;2023-01-04T04:02:28;11.30;99.90
39665;DHT22;26679;50.872;4.332;2023-01-04T04:04:53;11.30;99.90
39665;DHT22;26679;50.872;4.332;2023-01-04T04:07:30;11.40;99.90
39665;DHT22;26679;50.872;4.332;2023-01-04T04:10:06;11.40;99.90
39665;DHT22;26679;50.872;4.332;2023-01-04T04:12:32;11.50;99.90
39665;DHT22;26679;50.872;4.332;2023-01-04T04:14:57;11.50;99.90
39665;DHT22;26679;50.872;4.332;2023-01-04T04:17:23;11.60;99.90
39665;DHT22;26679;50.872;4.332;2023-01-04T04:19:48;11.50;99.90
39665;DHT22;26679;50.872;4.332;2023-01-04T04:22:14;11.50;99.90
39665;DHT22;26679;50.872;4.332;2023-01-04T04:24:39;11.70;99.90
39665;DHT22;26679;50.872;4.332;2023-01-04T04:27:05;11.60;99.90
39665;DHT22;26679;50.872;4.332;2023-01-04T04:29:30;11.70;99.90
39665;DHT22;26679;50.872;4.332;2023-01-04T04:31:56;11.60;99.90
39665;DHT22;26679;50.872;4.332;2023-01-04T04:34:21;11.90;99.90
39665;DHT22;26679;50.872;4.332;2023-01-04T04:36:47;11.70;99.90
39665;DHT22;26679;50.872;4.332;2023-01-04T04:39:12;11.60;99.90
39665;DHT22;26679;50.872;4.332;2023-01-04T04:41:38;11.70;99.90
39665;DHT22;26679;50.872;4.332;2023-01-04T04:44:06;11.80;99.90
39665;DHT22;26679;50.872;4.332;2023-01-04T04:46:32;11.70;99.90
39665;DHT22;26679;50.872;4.332;2023-01-04T04:48:57;11.70;99.90
39665;DHT22;26679;50.872;4.332;2023-01-04T04:51:23;12.00;99.90
39665;DHT22;26679;50.872;4.332;2023-01-04T04:53:48;11.80;99.90
39665;DHT22;26679;50.872;4.332;2023-01-04T04:56:14;11.90;99.90
39665;DHT22;26679;50.872;4.332;2023-01-04T04:58:39;11.80;99.90
39665;DHT22;26679;50.872;4.332;2023-01-04T05:01:06;11.80;99.90
39665;DHT22;26679;50.872;4.332;2023-01-04T05:03:32;11.80;99.90
39665;DHT22;26679;50.872;4.332;2023-01-04T05:05:58;11.90;99.90
39665;DHT22;26679;50.872;4.332;2023-01-04T05:08:23;11.80;99.90
39665;DHT22;26679;50.872;4.332;2023-01-04T05:10:49;11.80;99.90
39665;DHT22;26679;50.872;4.332;2023-01-04T05:13:14;12.00;99.90
39665;DHT22;26679;50.872;4.332;2023-01-04T05:15:42;11.80;99.90
39665;DHT22;26679;50.872;4.332;2023-01-04T05:18:09;11.90;99.90
39665;DHT22;26679;50.872;4.332;2023-01-04T05:20:35;11.90;99.90
39665;DHT22;26679;50.872;4.332;2023-01-04T05:23:00;12.00;99.90
39665;DHT22;26679;50.872;4.332;2023-01-04T05:25:26;11.90;99.90
39665;DHT22;26679;50.872;4.332;2023-01-04T05:27:51;11.90;99.90
39665;DHT22;26679;50.872;4.332;2023-01-04T05:30:17;11.90;99.90
39665;DHT22;26679;50.872;4.332;2023-01-04T05:32:53;12.00;99.90
39665;DHT22;26679;50.872;4.332;2023-01-04T05:35:18;11.90;99.90
39665;DHT22;26679;50.872;4.332;2023-01-04T05:37:44;12.00;99.90
39665;DHT22;26679;50.872;4.332;2023-01-04T05:40:09;12.00;99.90
39665;DHT22;26679;50.872;4.332;2023-01-04T05:42:35;12.00;99.90
39665;DHT22;26679;50.872;4.332;2023-01-04T05:45:00;12.00;99.90
39665;DHT22;26679;50.872;4.332;2023-01-04T05:47:26;12.10;99.90
39665;DHT22;26679;50.872;4.332;2023-01-04T05:49:52;12.10;99.90
39665;DHT22;26679;50.872;4.332;2023-01-04T05:52:18;12.10;99.90
39665;DHT22;26679;50.872;4.332;2023-01-04T05:54:44;12.10;99.90
39665;DHT22;26679;50.872;4.332;2023-01-04T05:57:09;12.40;99.90
39665;DHT22;26679;50.872;4.332;2023-01-04T05:59:35;12.10;99.90
39665;DHT22;26679;50.872;4.332;2023-01-04T06:02:01;12.10;99.90
39665;DHT22;26679;50.872;4.332;2023-01-04T06:04:26;12.20;99.90
39665;DHT22;26679;50.872;4.332;2023-01-04T06:06:52;12.20;99.90
39665;DHT22;26679;50.872;4.332;2023-01-04T06:09:17;12.20;99.90
39665;DHT22;26679;50.872;4.332;2023-01-04T06:11:43;12.10;99.90
39665;DHT22;26679;50.872;4.332;2023-01-04T06:14:08;12.10;99.90
39665;DHT22;26679;50.872;4.332;2023-01-04T06:16:34;12.00;99.90
39665;DHT22;26679;50.872;4.332;2023-01-04T06:18:59;11.90;99.90
39665;DHT22;26679;50.872;4.332;2023-01-04T06:21:25;11.80;99.90
39665;DHT22;26679;50.872;4.332;2023-01-04T06:23:51;11.20;99.90
39665;DHT22;26679;50.872;4.332;2023-01-04T06:26:16;11.60;99.90
39665;DHT22;26679;50.872;4.332;2023-01-04T06:28:42;11.60;99.90
39665;DHT22;26679;50.872;4.332;2023-01-04T06:31:08;11.60;99.90
39665;DHT22;26679;50.872;4.332;2023-01-04T06:33:34;11.70;99.90
39665;DHT22;26679;50.872;4.332;2023-01-04T06:36:00;11.70;99.90
39665;DHT22;26679;50.872;4.332;2023-01-04T06:38:25;11.60;99.90
39665;DHT22;26679;50.872;4.332;2023-01-04T06:40:51;11.70;99.90
39665;DHT22;26679;50.872;4.332;2023-01-04T06:43:17;11.60;99.90
39665;DHT22;26679;50.872;4.332;2023-01-04T06:45:42;11.80;99.90
39665;DHT22;26679;50.872;4.332;2023-01-04T06:48:08;11.70;99.90
39665;DHT22;26679;50.872;4.332;2023-01-04T06:50:33;11.70;99.90
39665;DHT22;26679;50.872;4.332;2023-01-04T06:52:59;11.80;99.90
39665;DHT22;26679;50.872;4.332;2023-01-04T06:55:25;11.90;99.90
39665;DHT22;26679;50.872;4.332;2023-01-04T06:57:50;11.90;99.90
39665;DHT22;26679;50.872;4.332;2023-01-04T07:00:16;11.80;99.90
39665;DHT22;26679;50.872;4.332;2023-01-04T07:02:41;12.00;99.90
39665;DHT22;26679;50.872;4.332;2023-01-04T07:05:07;12.00;99.90
39665;DHT22;26679;50.872;4.332;2023-01-04T07:07:33;12.00;99.90
39665;DHT22;26679;50.872;4.332;2023-01-04T07:09:59;12.20;99.90
39665;DHT22;26679;50.872;4.332;2023-01-04T07:12:24;12.10;99.90
39665;DHT22;26679;50.872;4.332;2023-01-04T07:14:50;12.10;99.90
39665;DHT22;26679;50.872;4.332;2023-01-04T07:17:15;12.20;99.90
39665;DHT22;26679;50.872;4.332;2023-01-04T07:19:41;12.50;99.90
39665;DHT22;26679;50.872;4.332;2023-01-04T07:22:06;12.20;99.90
39665;DHT22;26679;50.872;4.332;2023-01-04T07:24:32;12.30;99.90
39665;DHT22;26679;50.872;4.332;2023-01-04T07:26:58;12.20;99.90
39665;DHT22;26679;50.872;4.332;2023-01-04T07:29:24;12.20;99.90
39665;DHT22;26679;50.872;4.332;2023-01-04T07:31:50;12.30;99.90
39665;DHT22;26679;50.872;4.332;2023-01-04T07:34:16;12.40;99.90
39665;DHT22;26679;50.872;4.332;2023-01-04T07:36:42;12.50;99.90
39665;DHT22;26679;50.872;4.332;2023-01-04T07:39:08;12.40;99.90
39665;DHT22;26679;50.872;4.332;2023-01-04T07:41:37;12.50;99.90
39665;DHT22;26679;50.872;4.332;2023-01-04T07:44:03;12.40;99.90
39665;DHT22;26679;50.872;4.332;2023-01-04T07:46:29;12.40;99.90
39665;DHT22;26679;50.872;4.332;2023-01-04T07:48:55;12.30;99.90
39665;DHT22;26679;50.872;4.332;2023-01-04T07:51:20;12.30;99.90
39665;DHT22;26679;50.872;4.332;2023-01-04T07:53:47;12.30;99.90
39665;DHT22;26679;50.872;4.332;2023-01-04T07:56:13;12.40;99.90
39665;DHT22;26679;50.872;4.332;2023-01-04T07:58:38;12.40;99.90
39665;DHT22;26679;50.872;4.332;2023-01-04T08:01:05;12.40;99.90
39665;DHT22;26679;50.872;4.332;2023-01-04T08:03:30;12.40;99.90
39665;DHT22;26679;50.872;4.332;2023-01-04T08:05:56;12.30;99.90
39665;DHT22;26679;50.872;4.332;2023-01-04T08:08:21;12.20;99.90
39665;DHT22;26679;50.872;4.332;2023-01-04T08:10:47;12.20;99.90
39665;DHT22;26679;50.872;4.332;2023-01-04T08:13:12;12.20;99.90
39665;DHT22;26679;50.872;4.332;2023-01-04T08:15:38;12.20;99.90
39665;DHT22;26679;50.872;4.332;2023-01-04T08:18:03;12.10;99.90
39665;DHT22;26679;50.872;4.332;2023-01-04T08:20:29;12.30;99.90
39665;DHT22;26679;50.872;4.332;2023-01-04T08:22:54;12.20;99.90
39665;DHT22;26679;50.872;4.332;2023-01-04T08:25:20;12.30;99.90
39665;DHT22;26679;50.872;4.332;2023-01-04T08:27:45;12.40;99.90
39665;DHT22;26679;50.872;4.332;2023-01-04T08:30:11;12.40;99.90
39665;DHT22;26679;50.872;4.332;2023-01-04T08:32:37;12.40;99.90
39665;DHT22;26679;50.872;4.332;2023-01-04T08:35:03;12.50;99.90
39665;DHT22;26679;50.872;4.332;2023-01-04T08:37:29;12.60;99.90
39665;DHT22;26679;50.872;4.332;2023-01-04T08:39:56;12.50;99.90
39665;DHT22;26679;50.872;4.332;2023-01-04T08:42:22;12.60;99.90
39665;DHT22;26679;50.872;4.332;2023-01-04T08:44:47;12.70;99.90
39665;DHT22;26679;50.872;4.332;2023-01-04T08:47:13;12.70;99.90
39665;DHT22;26679;50.872;4.332;2023-01-04T08:49:38;12.70;99.90
39665;DHT22;26679;50.872;4.332;2023-01-04T08:52:04;12.70;99.90
39665;DHT22;26679;50.872;4.332;2023-01-04T08:54:30;12.70;99.90
39665;DHT22;26679;50.872;4.332;2023-01-04T08:56:56;12.70;99.90
39665;DHT22;26679;50.872;4.332;2023-01-04T08:59:25;12.70;99.90
39665;DHT22;26679;50.872;4.332;2023-01-04T09:01:50;12.70;99.90
39665;DHT22;26679;50.872;4.332;2023-01-04T09:04:16;12.70;99.90
39665;DHT22;26679;50.872;4.332;2023-01-04T09:06:42;12.70;99.90
39665;DHT22;26679;50.872;4.332;2023-01-04T09:09:08;12.80;99.90
39665;DHT22;26679;50.872;4.332;2023-01-04T09:11:36;12.90;99.90
39665;DHT22;26679;50.872;4.332;2023-01-04T09:14:01;12.90;99.90
39665;DHT22;26679;50.872;4.332;2023-01-04T09:16:28;12.90;99.90
39665;DHT22;26679;50.872;4.332;2023-01-04T09:18:53;12.90;99.90
39665;DHT22;26679;50.872;4.332;2023-01-04T09:21:20;12.90;99.90
39665;DHT22;26679;50.872;4.332;2023-01-04T09:23:46;12.90;99.90
39665;DHT22;26679;50.872;4.332;2023-01-04T09:26:12;12.70;99.90
39665;DHT22;26679;50.872;4.332;2023-01-04T09:28:38;12.50;99.90
39665;DHT22;26679;50.872;4.332;2023-01-04T09:31:07;12.50;99.90
39665;DHT22;26679;50.872;4.332;2023-01-04T09:33:33;12.40;99.90
39665;DHT22;26679;50.872;4.332;2023-01-04T09:36:02;12.40;99.90
39665;DHT22;26679;50.872;4.332;2023-01-04T09:38:28;12.40;99.90
39665;DHT22;26679;50.872;4.332;2023-01-04T09:43:25;12.60;99.90
39665;DHT22;26679;50.872;4.332;2023-01-04T09:46:02;12.60;99.90
39665;DHT22;26679;50.872;4.332;2023-01-04T09:48:28;12.60;99.90
39665;DHT22;26679;50.872;4.332;2023-01-04T09:50:57;12.60;99.90
39665;DHT22;26679;50.872;4.332;2023-01-04T09:53:27;12.50;99.90
39665;DHT22;26679;50.872;4.332;2023-01-04T09:55:55;12.50;99.90
39665;DHT22;26679;50.872;4.332;2023-01-04T10:01:02;12.50;99.90
39665;DHT22;26679;50.872;4.332;2023-01-04T10:05:54;12.60;99.90
39665;DHT22;26679;50.872;4.332;2023-01-04T10:08:20;12.50;99.90
39665;DHT22;26679;50.872;4.332;2023-01-04T10:18:24;12.40;99.90
39665;DHT22;26679;50.872;4.332;2023-01-04T10:26:12;12.30;99.90
39665;DHT22;26679;50.872;4.332;2023-01-04T10:28:48;12.30;99.90
39665;DHT22;26679;50.872;4.332;2023-01-04T10:31:22;12.40;99.90
39665;DHT22;26679;50.872;4.332;2023-01-04T10:33:49;12.40;99.90
39665;DHT22;26679;50.872;4.332;2023-01-04T10:36:21;12.40;99.90
39665;DHT22;26679;50.872;4.332;2023-01-04T10:38:55;12.40;99.90
39665;DHT22;26679;50.872;4.332;2023-01-04T10:41:22;12.40;99.90
39665;DHT22;26679;50.872;4.332;2023-01-04T10:46:21;12.40;99.90
39665;DHT22;26679;50.872;4.332;2023-01-04T10:48:53;12.40;99.90
39665;DHT22;26679;50.872;4.332;2023-01-04T10:51:30;12.40;99.90
39665;DHT22;26679;50.872;4.332;2023-01-04T10:54:02;12.40;99.90
39665;DHT22;26679;50.872;4.332;2023-01-04T10:56:33;12.40;99.90
39665;DHT22;26679;50.872;4.332;2023-01-04T10:59:05;12.40;99.90
39665;DHT22;26679;50.872;4.332;2023-01-04T11:01:34;12.40;99.90
39665;DHT22;26679;50.872;4.332;2023-01-04T11:04:07;12.40;99.90
39665;DHT22;26679;50.872;4.332;2023-01-04T11:06:38;12.40;99.90
39665;DHT22;26679;50.872;4.332;2023-01-04T11:09:10;12.40;99.90
39665;DHT22;26679;50.872;4.332;2023-01-04T11:11:44;12.40;99.90
39665;DHT22;26679;50.872;4.332;2023-01-04T11:14:10;12.40;99.90
39665;DHT22;26679;50.872;4.332;2023-01-04T11:16:37;12.40;99.90
39665;DHT22;26679;50.872;4.332;2023-01-04T11:19:04;12.40;99.90
39665;DHT22;26679;50.872;4.332;2023-01-04T11:21:32;12.30;99.90
39665;DHT22;26679;50.872;4.332;2023-01-04T11:23:59;12.30;99.90
39665;DHT22;26679;50.872;4.332;2023-01-04T11:26:29;12.30;99.90
39665;DHT22;26679;50.872;4.332;2023-01-04T11:33:58;12.40;99.90
39665;DHT22;26679;50.872;4.332;2023-01-04T11:38:56;12.30;99.90
39665;DHT22;26679;50.872;4.332;2023-01-04T11:41:22;12.30;99.90
39665;DHT22;26679;50.872;4.332;2023-01-04T11:46:24;12.30;99.90
39665;DHT22;26679;50.872;4.332;2023-01-04T11:48:50;12.40;99.90
39665;DHT22;26679;50.872;4.332;2023-01-04T11:56:35;12.30;99.90
39665;DHT22;26679;50.872;4.332;2023-01-04T12:01:38;12.40;99.90
39665;DHT22;26679;50.872;4.332;2023-01-04T12:04:08;12.40;99.90
39665;DHT22;26679;50.872;4.332;2023-01-04T12:09:03;12.50;99.90
39665;DHT22;26679;50.872;4.332;2023-01-04T12:11:31;12.50;99.90
39665;DHT22;26679;50.872;4.332;2023-01-04T12:13:57;12.40;99.90
39665;DHT22;26679;50.872;4.332;2023-01-04T12:18:49;12.50;99.90
39665;DHT22;26679;50.872;4.332;2023-01-04T12:21:19;12.50;99.90
39665;DHT22;26679;50.872;4.332;2023-01-04T12:23:44;12.60;99.90
39665;DHT22;26679;50.872;4.332;2023-01-04T12:26:10;12.60;99.90
39665;DHT22;26679;50.872;4.332;2023-01-04T12:28:37;12.60;99.90
39665;DHT22;26679;50.872;4.332;2023-01-04T12:33:43;12.60;99.90
39665;DHT22;26679;50.872;4.332;2023-01-04T12:36:09;12.60;99.90
39665;DHT22;26679;50.872;4.332;2023-01-04T12:41:14;12.60;99.90
39665;DHT22;26679;50.872;4.332;2023-01-04T12:43:39;12.60;99.90
39665;DHT22;26679;50.872;4.332;2023-01-04T12:49:16;12.60;99.90
39665;DHT22;26679;50.872;4.332;2023-01-04T12:51:46;12.70;99.90
39665;DHT22;26679;50.872;4.332;2023-01-04T12:59:30;12.70;99.90
39665;DHT22;26679;50.872;4.332;2023-01-04T13:04:40;12.70;99.90
39665;DHT22;26679;50.872;4.332;2023-01-04T13:07:27;12.80;99.90
39665;DHT22;26679;50.872;4.332;2023-01-04T13:09:53;12.70;99.90
39665;DHT22;26679;50.872;4.332;2023-01-04T13:14:59;12.70;99.90
39665;DHT22;26679;50.872;4.332;2023-01-04T13:17:26;12.70;99.90
39665;DHT22;26679;50.872;4.332;2023-01-04T13:19:53;12.70;99.90
39665;DHT22;26679;50.872;4.332;2023-01-04T13:22:26;12.80;99.90
39665;DHT22;26679;50.872;4.332;2023-01-04T13:24:53;12.80;99.90
39665;DHT22;26679;50.872;4.332;2023-01-04T13:27:21;12.70;99.90
39665;DHT22;26679;50.872;4.332;2023-01-04T13:29:47;12.90;99.90
39665;DHT22;26679;50.872;4.332;2023-01-04T13:32:23;12.90;99.90
39665;DHT22;26679;50.872;4.332;2023-01-04T13:37:40;12.90;99.90
39665;DHT22;26679;50.872;4.332;2023-01-04T13:40:23;13.00;99.90
39665;DHT22;26679;50.872;4.332;2023-01-04T13:48:04;13.00;99.90
39665;DHT22;26679;50.872;4.332;2023-01-04T13:50:37;13.00;99.90
39665;DHT22;26679;50.872;4.332;2023-01-04T13:55:47;13.00;99.90
39665;DHT22;26679;50.872;4.332;2023-01-04T13:58:17;13.00;99.90
39665;DHT22;26679;50.872;4.332;2023-01-04T14:00:44;13.10;99.90
39665;DHT22;26679;50.872;4.332;2023-01-04T14:03:23;13.10;99.90
39665;DHT22;26679;50.872;4.332;2023-01-04T14:05:50;13.00;99.90
39665;DHT22;26679;50.872;4.332;2023-01-04T14:08:17;13.00;99.90
39665;DHT22;26679;50.872;4.332;2023-01-04T14:10:44;13.00;99.90
39665;DHT22;26679;50.872;4.332;2023-01-04T14:13:16;12.90;99.90
39665;DHT22;26679;50.872;4.332;2023-01-04T14:15:43;13.00;99.90
39665;DHT22;26679;50.872;4.332;2023-01-04T14:18:41;13.00;99.90
39665;DHT22;26679;50.872;4.332;2023-01-04T14:21:00;13.00;99.90
39665;DHT22;26679;50.872;4.332;2023-01-04T14:23:32;13.00;99.90
39665;DHT22;26679;50.872;4.332;2023-01-04T14:26:00;13.00;99.90
39665;DHT22;26679;50.872;4.332;2023-01-04T14:28:27;13.10;99.90
39665;DHT22;26679;50.872;4.332;2023-01-04T14:38:41;13.10;99.90
39665;DHT22;26679;50.872;4.332;2023-01-04T14:41:10;13.10;99.90
39665;DHT22;26679;50.872;4.332;2023-01-04T14:43:37;13.00;99.90
39665;DHT22;26679;50.872;4.332;2023-01-04T14:46:07;13.10;99.90
39665;DHT22;26679;50.872;4.332;2023-01-04T14:48:33;13.00;99.90
39665;DHT22;26679;50.872;4.332;2023-01-04T14:50:58;13.00;99.90
39665;DHT22;26679;50.872;4.332;2023-01-04T14:53:24;13.00;99.90
39665;DHT22;26679;50.872;4.332;2023-01-04T14:55:50;13.00;99.90
39665;DHT22;26679;50.872;4.332;2023-01-04T14:58:16;13.00;99.90
39665;DHT22;26679;50.872;4.332;2023-01-04T15:00:41;13.00;99.90
39665;DHT22;26679;50.872;4.332;2023-01-04T15:03:07;12.90;99.90
39665;DHT22;26679;50.872;4.332;2023-01-04T15:05:33;13.00;99.90
39665;DHT22;26679;50.872;4.332;2023-01-04T15:07:59;13.00;99.90
39665;DHT22;26679;50.872;4.332;2023-01-04T15:10:26;13.00;99.90
39665;DHT22;26679;50.872;4.332;2023-01-04T15:12:52;12.90;99.90
39665;DHT22;26679;50.872;4.332;2023-01-04T15:15:18;12.90;99.90
39665;DHT22;26679;50.872;4.332;2023-01-04T15:17:44;12.70;99.90
39665;DHT22;26679;50.872;4.332;2023-01-04T15:20:11;12.80;99.90
39665;DHT22;26679;50.872;4.332;2023-01-04T15:25:44;12.80;99.90
39665;DHT22;26679;50.872;4.332;2023-01-04T15:28:22;12.60;99.90
39665;DHT22;26679;50.872;4.332;2023-01-04T15:30:50;11.80;99.90
39665;DHT22;26679;50.872;4.332;2023-01-04T15:33:15;12.20;99.90
39665;DHT22;26679;50.872;4.332;2023-01-04T15:35:41;12.80;99.90
39665;DHT22;26679;50.872;4.332;2023-01-04T15:38:06;12.80;99.90
39665;DHT22;26679;50.872;4.332;2023-01-04T15:40:32;12.90;99.90
39665;DHT22;26679;50.872;4.332;2023-01-04T15:43:00;12.90;99.90
39665;DHT22;26679;50.872;4.332;2023-01-04T15:45:29;12.90;99.90
39665;DHT22;26679;50.872;4.332;2023-01-04T15:47:55;12.70;99.90
39665;DHT22;26679;50.872;4.332;2023-01-04T15:50:27;12.70;99.90
39665;DHT22;26679;50.872;4.332;2023-01-04T15:55:30;12.70;99.90
39665;DHT22;26679;50.872;4.332;2023-01-04T15:57:55;12.70;99.90
39665;DHT22;26679;50.872;4.332;2023-01-04T16:00:21;12.80;99.90
39665;DHT22;26679;50.872;4.332;2023-01-04T16:02:47;12.80;99.90
39665;DHT22;26679;50.872;4.332;2023-01-04T16:05:13;12.90;99.90
39665;DHT22;26679;50.872;4.332;2023-01-04T16:07:40;12.80;99.90
39665;DHT22;26679;50.872;4.332;2023-01-04T16:10:06;12.80;99.90
39665;DHT22;26679;50.872;4.332;2023-01-04T16:12:31;12.80;99.90
39665;DHT22;26679;50.872;4.332;2023-01-04T16:15:13;12.60;99.90
39665;DHT22;26679;50.872;4.332;2023-01-04T16:17:39;12.60;99.90
39665;DHT22;26679;50.872;4.332;2023-01-04T16:20:05;12.80;99.90
39665;DHT22;26679;50.872;4.332;2023-01-04T16:22:31;12.50;99.90
39665;DHT22;26679;50.872;4.332;2023-01-04T16:24:56;12.60;99.90
39665;DHT22;26679;50.872;4.332;2023-01-04T16:27:22;12.70;99.90
39665;DHT22;26679;50.872;4.332;2023-01-04T16:29:48;12.60;99.90
39665;DHT22;26679;50.872;4.332;2023-01-04T16:32:15;12.80;99.90
39665;DHT22;26679;50.872;4.332;2023-01-04T16:34:40;12.90;99.90
39665;DHT22;26679;50.872;4.332;2023-01-04T16:37:06;12.90;99.90
39665;DHT22;26679;50.872;4.332;2023-01-04T16:39:31;13.00;99.90
39665;DHT22;26679;50.872;4.332;2023-01-04T16:41:57;12.80;99.90
39665;DHT22;26679;50.872;4.332;2023-01-04T16:44:22;12.70;99.90
39665;DHT22;26679;50.872;4.332;2023-01-04T16:46:48;12.70;99.90
39665;DHT22;26679;50.872;4.332;2023-01-04T16:49:14;12.70;99.90
39665;DHT22;26679;50.872;4.332;2023-01-04T16:51:41;12.80;99.90
39665;DHT22;26679;50.872;4.332;2023-01-04T16:54:08;12.80;99.90
39665;DHT22;26679;50.872;4.332;2023-01-04T16:56:34;12.90;99.90
39665;DHT22;26679;50.872;4.332;2023-01-04T16:59:00;12.90;99.90
39665;DHT22;26679;50.872;4.332;2023-01-04T17:01:29;12.80;99.90
39665;DHT22;26679;50.872;4.332;2023-01-04T17:03:56;12.70;99.90
39665;DHT22;26679;50.872;4.332;2023-01-04T17:06:23;12.70;99.90
39665;DHT22;26679;50.872;4.332;2023-01-04T17:08:49;12.50;99.90
39665;DHT22;26679;50.872;4.332;2023-01-04T17:11:16;12.50;99.90
39665;DHT22;26679;50.872;4.332;2023-01-04T17:13:42;12.50;99.90
39665;DHT22;26679;50.872;4.332;2023-01-04T17:16:08;12.50;99.90
39665;DHT22;26679;50.872;4.332;2023-01-04T17:18:34;12.40;99.90
39665;DHT22;26679;50.872;4.332;2023-01-04T17:21:01;12.40;99.90
39665;DHT22;26679;50.872;4.332;2023-01-04T17:23:27;12.40;99.90
39665;DHT22;26679;50.872;4.332;2023-01-04T17:25:54;12.40;99.90
39665;DHT22;26679;50.872;4.332;2023-01-04T17:28:20;12.30;99.90
39665;DHT22;26679;50.872;4.332;2023-01-04T17:30:45;12.30;99.90
39665;DHT22;26679;50.872;4.332;2023-01-04T17:33:11;12.40;99.90
39665;DHT22;26679;50.872;4.332;2023-01-04T17:35:37;12.40;99.90